sensor_id;sensor_type;location;lat;lon;timestamp;pressure;altitude;pressure_sealevel;temperature;humidity
66681;BME280;53575;51.366;12.350;2023-03-21T00:00:45;100441.09;;;9.07;91.96
66681;BME280;53575;51.366;12.350;2023-03-21T00:03:12;100441.09;;;9.05;91.36
66681;BME280;53575;51.366;12.350;2023-03-21T00:05:39;100441.09;;;9.10;90.87
66681;BME280;53575;51.366;12.350;2023-03-21T00:08:05;100448.91;;;9.02;91.24
66681;BME280;53575;51.366;12.350;2023-03-21T00:10:31;100445.41;;;9.03;91.16
66681;BME280;53575;51.366;12.350;2023-03-21T00:12:56;100443.66;;;8.96;91.38
66681;BME280;53575;51.366;12.350;2023-03-21T00:15:23;100448.00;;;8.95;91.87
66681;BME280;53575;51.366;12.350;2023-03-21T00:17:53;100443.69;;;8.94;92.68
66681;BME280;53575;51.366;12.350;2023-03-21T00:20:22;100437.59;;;9.03;92.72
66681;BME280;53575;51.366;12.350;2023-03-21T00:22:48;100445.41;;;9.00;91.25
66681;BME280;53575;51.366;12.350;2023-03-21T00:25:13;100442.81;;;8.94;91.26
66681;BME280;53575;51.366;12.350;2023-03-21T00:27:39;100443.69;;;8.94;90.49
66681;BME280;53575;51.366;12.350;2023-03-21T00:30:05;100437.59;;;8.95;90.41
66681;BME280;53575;51.366;12.350;2023-03-21T00:32:31;100445.41;;;8.98;89.90
66681;BME280;53575;51.366;12.350;2023-03-21T00:34:56;100430.63;;;8.90;89.33
66681;BME280;53575;51.366;12.350;2023-03-21T00:37:21;100439.31;;;8.87;88.94
66681;BME280;53575;51.366;12.350;2023-03-21T00:39:47;100428.00;;;8.88;88.93
66681;BME280;53575;51.366;12.350;2023-03-21T00:42:16;100441.94;;;8.93;87.11
66681;BME280;53575;51.366;12.350;2023-03-21T00:44:42;100439.28;;;8.81;88.00
66681;BME280;53575;51.366;12.350;2023-03-21T00:47:11;100440.16;;;8.85;88.25
66681;BME280;53575;51.366;12.350;2023-03-21T00:49:37;100445.41;;;8.91;89.04
66681;BME280;53575;51.366;12.350;2023-03-21T00:52:07;100451.47;;;8.88;90.50
66681;BME280;53575;51.366;12.350;2023-03-21T00:54:34;100446.22;;;8.71;91.76
66681;BME280;53575;51.366;12.350;2023-03-21T00:57:01;100436.56;;;8.53;92.42
66681;BME280;53575;51.366;12.350;2023-03-21T00:59:27;100450.47;;;8.52;92.52
66681;BME280;53575;51.366;12.350;2023-03-21T01:01:53;100448.69;;;8.42;93.76
66681;BME280;53575;51.366;12.350;2023-03-21T01:04:19;100452.94;;;8.29;96.12
66681;BME280;53575;51.366;12.350;2023-03-21T01:06:46;100455.44;;;8.11;98.13
66681;BME280;53575;51.366;12.350;2023-03-21T01:09:17;100444.97;;;8.05;100.00
66681;BME280;53575;51.366;12.350;2023-03-21T01:11:44;100447.56;;;8.02;100.00
66681;BME280;53575;51.366;12.350;2023-03-21T01:14:10;100452.59;;;7.76;100.00
66681;BME280;53575;51.366;12.350;2023-03-21T01:16:36;100444.75;;;7.73;100.00
66681;BME280;53575;51.366;12.350;2023-03-21T01:19:03;100447.25;;;7.56;100.00
66681;BME280;53575;51.366;12.350;2023-03-21T01:21:29;100445.44;;;7.49;100.00
66681;BME280;53575;51.366;12.350;2023-03-21T01:23:55;100442.00;;;7.53;100.00
66681;BME280;53575;51.366;12.350;2023-03-21T01:26:21;100439.44;;;7.59;100.00
66681;BME280;53575;51.366;12.350;2023-03-21T01:28:46;100438.53;;;7.54;100.00
66681;BME280;53575;51.366;12.350;2023-03-21T01:31:13;100435.91;;;7.51;100.00
66681;BME280;53575;51.366;12.350;2023-03-21T01:33:40;100434.19;;;7.51;100.00
66681;BME280;53575;51.366;12.350;2023-03-21T01:36:06;100436.91;;;7.65;100.00
66681;BME280;53575;51.366;12.350;2023-03-21T01:38:32;100433.47;;;7.69;100.00
66681;BME280;53575;51.366;12.350;2023-03-21T01:40:59;100429.13;;;7.68;100.00
66681;BME280;53575;51.366;12.350;2023-03-21T01:43:31;100426.50;;;7.65;100.00
66681;BME280;53575;51.366;12.350;2023-03-21T01:46:21;100431.75;;;7.71;100.00
66681;BME280;53575;51.366;12.350;2023-03-21T01:51:43;100430.06;;;7.81;100.00
66681;BME280;53575;51.366;12.350;2023-03-21T01:54:14;100428.38;;;7.88;100.00
66681;BME280;53575;51.366;12.350;2023-03-21T01:56:42;100425.75;;;7.78;100.00
66681;BME280;53575;51.366;12.350;2023-03-21T01:59:15;100427.44;;;7.75;100.00
66681;BME280;53575;51.366;12.350;2023-03-21T02:01:43;100417.13;;;7.89;100.00
66681;BME280;53575;51.366;12.350;2023-03-21T02:04:09;100420.50;;;7.77;100.00
66681;BME280;53575;51.366;12.350;2023-03-21T02:06:47;100418.81;;;7.85;100.00
66681;BME280;53575;51.366;12.350;2023-03-21T02:09:18;100421.38;;;7.77;100.00
66681;BME280;53575;51.366;12.350;2023-03-21T02:11:45;100417.00;;;7.70;100.00
66681;BME280;53575;51.366;12.350;2023-03-21T02:14:16;100408.34;;;7.74;100.00
66681;BME280;53575;51.366;12.350;2023-03-21T02:16:47;100413.63;;;7.85;100.00
66681;BME280;53575;51.366;12.350;2023-03-21T02:25:01;100404.81;;;7.63;100.00
66681;BME280;53575;51.366;12.350;2023-03-21T02:27:36;100402.22;;;7.65;100.00
66681;BME280;53575;51.366;12.350;2023-03-21T02:30:50;100399.63;;;7.66;100.00
66681;BME280;53575;51.366;12.350;2023-03-21T02:41:53;100397.97;;;7.82;100.00
66681;BME280;53575;51.366;12.350;2023-03-21T02:46:56;100391.97;;;7.89;100.00
66681;BME280;53575;51.366;12.350;2023-03-21T02:49:30;100389.47;;;8.06;100.00
66681;BME280;53575;51.366;12.350;2023-03-21T02:51:58;100390.22;;;7.90;100.00
66681;BME280;53575;51.366;12.350;2023-03-21T02:54:26;100388.47;;;7.84;100.00
66681;BME280;53575;51.366;12.350;2023-03-21T02:56:55;100394.53;;;7.81;100.00
66681;BME280;53575;51.366;12.350;2023-03-21T02:59:23;100394.53;;;7.80;100.00
66681;BME280;53575;51.366;12.350;2023-03-21T03:01:53;100394.63;;;7.94;100.00
66681;BME280;53575;51.366;12.350;2023-03-21T03:04:22;100389.38;;;7.88;100.00
66681;BME280;53575;51.366;12.350;2023-03-21T03:17:50;100374.63;;;7.88;100.00
66681;BME280;53575;51.366;12.350;2023-03-21T03:20:27;100380.72;;;7.93;100.00
66681;BME280;53575;51.366;12.350;2023-03-21T03:23:04;100377.25;;;7.96;100.00
66681;BME280;53575;51.366;12.350;2023-03-21T03:25:39;100380.72;;;7.93;100.00
66681;BME280;53575;51.366;12.350;2023-03-21T03:28:08;100375.50;;;7.93;100.00
66681;BME280;53575;51.366;12.350;2023-03-21T03:30:37;100379.00;;;7.95;100.00
66681;BME280;53575;51.366;12.350;2023-03-21T03:33:05;100376.34;;;7.88;100.00
66681;BME280;53575;51.366;12.350;2023-03-21T03:35:33;100372.91;;;7.93;100.00
66681;BME280;53575;51.366;12.350;2023-03-21T03:38:01;100377.22;;;7.87;100.00
66681;BME280;53575;51.366;12.350;2023-03-21T03:40:33;100372.94;;;7.95;100.00
66681;BME280;53575;51.366;12.350;2023-03-21T03:43:04;100377.28;;;7.94;100.00
66681;BME280;53575;51.366;12.350;2023-03-21T03:45:41;100385.94;;;7.95;100.00
66681;BME280;53575;51.366;12.350;2023-03-21T03:48:18;100379.91;;;8.03;100.00
66681;BME280;53575;51.366;12.350;2023-03-21T03:51:09;100379.91;;;8.03;100.00
66681;BME280;53575;51.366;12.350;2023-03-21T03:53:43;100373.88;;;8.09;100.00
66681;BME280;53575;51.366;12.350;2023-03-21T03:56:11;100373.81;;;8.00;100.00
66681;BME280;53575;51.366;12.350;2023-03-21T03:58:38;100372.19;;;8.17;100.00
66681;BME280;53575;51.366;12.350;2023-03-21T04:01:05;100370.38;;;8.04;100.00
66681;BME280;53575;51.366;12.350;2023-03-21T04:03:36;100364.28;;;8.00;100.00
66681;BME280;53575;51.366;12.350;2023-03-21T04:06:02;100364.25;;;7.97;100.00
66681;BME280;53575;51.366;12.350;2023-03-21T04:08:28;100357.31;;;7.96;100.00
66681;BME280;53575;51.366;12.350;2023-03-21T04:10:54;100363.44;;;8.01;100.00
66681;BME280;53575;51.366;12.350;2023-03-21T04:13:20;100360.78;;;7.95;100.00
66681;BME280;53575;51.366;12.350;2023-03-21T04:15:46;100360.81;;;8.00;100.00
66681;BME280;53575;51.366;12.350;2023-03-21T04:18:11;100362.50;;;7.92;100.00
66681;BME280;53575;51.366;12.350;2023-03-21T04:20:37;100353.88;;;7.99;100.00
66681;BME280;53575;51.366;12.350;2023-03-21T04:23:03;100367.66;;;7.86;100.00
66681;BME280;53575;51.366;12.350;2023-03-21T04:25:28;100365.97;;;7.91;100.00
66681;BME280;53575;51.366;12.350;2023-03-21T04:27:54;100370.28;;;7.89;100.00
66681;BME280;53575;51.366;12.350;2023-03-21T04:30:21;100365.09;;;7.92;100.00
66681;BME280;53575;51.366;12.350;2023-03-21T04:32:49;100361.69;;;8.02;100.00
66681;BME280;53575;51.366;12.350;2023-03-21T04:35:18;100365.19;;;8.05;100.00
66681;BME280;53575;51.366;12.350;2023-03-21T04:37:45;100361.72;;;8.08;100.00
66681;BME280;53575;51.366;12.350;2023-03-21T04:40:11;100370.38;;;8.04;99.50
66681;BME280;53575;51.366;12.350;2023-03-21T04:42:36;100361.72;;;8.06;99.15
66681;BME280;53575;51.366;12.350;2023-03-21T04:45:03;100353.91;;;8.11;98.73
66681;BME280;53575;51.366;12.350;2023-03-21T04:47:29;100354.78;;;8.05;99.52
66681;BME280;53575;51.366;12.350;2023-03-21T04:49:54;100343.50;;;8.11;99.63
66681;BME280;53575;51.366;12.350;2023-03-21T04:52:21;100363.41;;;8.04;100.00
66681;BME280;53575;51.366;12.350;2023-03-21T04:54:47;100370.44;;;8.19;99.49
66681;BME280;53575;51.366;12.350;2023-03-21T04:57:12;100366.06;;;8.12;100.00
66681;BME280;53575;51.366;12.350;2023-03-21T04:59:38;100357.41;;;8.10;99.78
66681;BME280;53575;51.366;12.350;2023-03-21T05:02:04;100357.41;;;8.16;99.25
66681;BME280;53575;51.366;12.350;2023-03-21T05:04:29;100356.56;;;8.19;99.79
66681;BME280;53575;51.366;12.350;2023-03-21T05:06:55;100359.16;;;8.23;99.57
66681;BME280;53575;51.366;12.350;2023-03-21T05:09:21;100353.09;;;8.21;100.00
66681;BME280;53575;51.366;12.350;2023-03-21T05:11:47;100354.81;;;8.16;99.61
66681;BME280;53575;51.366;12.350;2023-03-21T05:14:16;100354.88;;;8.28;98.65
66681;BME280;53575;51.366;12.350;2023-03-21T05:16:43;100355.75;;;8.29;98.46
66681;BME280;53575;51.366;12.350;2023-03-21T05:19:13;100354.84;;;8.27;98.43
66681;BME280;53575;51.366;12.350;2023-03-21T05:21:39;100359.19;;;8.22;99.04
66681;BME280;53575;51.366;12.350;2023-03-21T05:24:17;100361.81;;;8.29;98.92
66681;BME280;53575;51.366;12.350;2023-03-21T05:26:44;100365.28;;;8.35;98.46
66681;BME280;53575;51.366;12.350;2023-03-21T05:29:16;100366.97;;;8.23;98.60
66681;BME280;53575;51.366;12.350;2023-03-21T05:31:43;100368.72;;;8.21;98.46
66681;BME280;53575;51.366;12.350;2023-03-21T05:34:09;100362.66;;;8.25;98.50
66681;BME280;53575;51.366;12.350;2023-03-21T05:36:34;100360.06;;;8.21;99.21
66681;BME280;53575;51.366;12.350;2023-03-21T05:39:00;100360.94;;;8.26;99.25
66681;BME280;53575;51.366;12.350;2023-03-21T05:41:26;100360.97;;;8.32;98.41
66681;BME280;53575;51.366;12.350;2023-03-21T05:43:52;100361.00;;;8.43;97.65
66681;BME280;53575;51.366;12.350;2023-03-21T05:46:17;100354.94;;;8.45;97.30
66681;BME280;53575;51.366;12.350;2023-03-21T05:48:43;100350.56;;;8.37;97.90
66681;BME280;53575;51.366;12.350;2023-03-21T05:51:08;100345.31;;;8.35;98.28
66681;BME280;53575;51.366;12.350;2023-03-21T05:53:34;100352.34;;;8.44;97.50
66681;BME280;53575;51.366;12.350;2023-03-21T05:55:59;100358.41;;;8.46;97.22
66681;BME280;53575;51.366;12.350;2023-03-21T05:58:24;100358.44;;;8.53;96.54
66681;BME280;53575;51.366;12.350;2023-03-21T06:00:50;100359.31;;;8.48;96.79
66681;BME280;53575;51.366;12.350;2023-03-21T06:03:15;100352.38;;;8.61;97.39
66681;BME280;53575;51.366;12.350;2023-03-21T06:05:41;100354.16;;;8.66;96.48
66681;BME280;53575;51.366;12.350;2023-03-21T06:08:07;100350.66;;;8.57;96.60
66681;BME280;53575;51.366;12.350;2023-03-21T06:10:32;100354.16;;;8.63;96.40
66681;BME280;53575;51.366;12.350;2023-03-21T06:12:58;100348.94;;;8.65;95.48
66681;BME280;53575;51.366;12.350;2023-03-21T06:15:23;100349.78;;;8.65;95.77
66681;BME280;53575;51.366;12.350;2023-03-21T06:17:50;100348.06;;;8.67;95.71
66681;BME280;53575;51.366;12.350;2023-03-21T06:20:16;100359.41;;;8.91;94.74
66681;BME280;53575;51.366;12.350;2023-03-21T06:22:42;100352.44;;;8.99;93.53
66681;BME280;53575;51.366;12.350;2023-03-21T06:25:07;100355.94;;;9.09;93.92
66681;BME280;53575;51.366;12.350;2023-03-21T06:27:33;100358.53;;;9.12;93.59
66681;BME280;53575;51.366;12.350;2023-03-21T06:29:59;100357.69;;;9.20;92.75
66681;BME280;53575;51.366;12.350;2023-03-21T06:32:26;100360.28;;;9.22;92.07
66681;BME280;53575;51.366;12.350;2023-03-21T06:34:51;100365.50;;;9.26;92.05
66681;BME280;53575;51.366;12.350;2023-03-21T06:37:17;100358.56;;;9.32;91.32
66681;BME280;53575;51.366;12.350;2023-03-21T06:39:43;100362.88;;;9.42;90.40
66681;BME280;53575;51.366;12.350;2023-03-21T06:42:10;100364.63;;;9.40;89.64
66681;BME280;53575;51.366;12.350;2023-03-21T06:44:36;100376.81;;;9.28;89.83
66681;BME280;53575;51.366;12.350;2023-03-21T06:47:01;100378.53;;;9.22;89.36
66681;BME280;53575;51.366;12.350;2023-03-21T06:49:27;100380.25;;;9.23;88.76
66681;BME280;53575;51.366;12.350;2023-03-21T06:51:52;100381.16;;;9.25;89.00
66681;BME280;53575;51.366;12.350;2023-03-21T06:54:18;100383.75;;;9.16;88.66
66681;BME280;53575;51.366;12.350;2023-03-21T06:56:45;100382.03;;;9.16;89.06
66681;BME280;53575;51.366;12.350;2023-03-21T06:59:10;100387.22;;;9.18;88.85
66681;BME280;53575;51.366;12.350;2023-03-21T07:01:36;100381.16;;;9.20;88.47
66681;BME280;53575;51.366;12.350;2023-03-21T07:04:02;100372.44;;;9.31;88.87
66681;BME280;53575;51.366;12.350;2023-03-21T07:06:28;100378.56;;;9.36;87.76
66681;BME280;53575;51.366;12.350;2023-03-21T07:08:54;100376.81;;;9.55;87.41
66681;BME280;53575;51.366;12.350;2023-03-21T07:11:21;100379.38;;;9.65;87.61
66681;BME280;53575;51.366;12.350;2023-03-21T07:13:47;100371.53;;;9.82;86.33
66681;BME280;53575;51.366;12.350;2023-03-21T07:16:17;100369.81;;;9.81;86.55
66681;BME280;53575;51.366;12.350;2023-03-21T07:18:43;100370.66;;;9.80;86.72
66681;BME280;53575;51.366;12.350;2023-03-21T07:21:09;100368.91;;;9.90;85.75
66681;BME280;53575;51.366;12.350;2023-03-21T07:23:35;100370.63;;;9.95;85.04
66681;BME280;53575;51.366;12.350;2023-03-21T07:26:02;100361.97;;;9.89;85.15
66681;BME280;53575;51.366;12.350;2023-03-21T07:28:28;100352.38;;;9.86;85.59
66681;BME280;53575;51.366;12.350;2023-03-21T07:31:02;100350.59;;;10.04;85.82
66681;BME280;53575;51.366;12.350;2023-03-21T07:33:29;100352.25;;;10.32;84.11
66681;BME280;53575;51.366;12.350;2023-03-21T07:35:55;100354.84;;;10.34;83.38
66681;BME280;53575;51.366;12.350;2023-03-21T07:38:22;100353.91;;;10.50;83.08
66681;BME280;53575;51.366;12.350;2023-03-21T07:40:48;100353.13;;;10.33;82.80
66681;BME280;53575;51.366;12.350;2023-03-21T07:43:15;100355.72;;;10.33;83.75
66681;BME280;53575;51.366;12.350;2023-03-21T07:45:42;100352.25;;;10.29;84.15
66681;BME280;53575;51.366;12.350;2023-03-21T07:48:09;100358.34;;;10.36;83.50
66681;BME280;53575;51.366;12.350;2023-03-21T07:50:38;100361.78;;;10.41;82.98
66681;BME280;53575;51.366;12.350;2023-03-21T07:53:03;100352.22;;;10.43;83.31
66681;BME280;53575;51.366;12.350;2023-03-21T07:55:29;100365.19;;;10.61;82.55
66681;BME280;53575;51.366;12.350;2023-03-21T07:57:56;100353.91;;;10.50;81.66
66681;BME280;53575;51.366;12.350;2023-03-21T08:00:21;100357.44;;;10.34;81.74
66681;BME280;53575;51.366;12.350;2023-03-21T08:02:51;100360.06;;;10.35;82.14
66681;BME280;53575;51.366;12.350;2023-03-21T08:05:21;100348.72;;;10.41;82.76
66681;BME280;53575;51.366;12.350;2023-03-21T08:07:47;100354.75;;;10.52;81.94
66681;BME280;53575;51.366;12.350;2023-03-21T08:10:13;100354.69;;;10.64;81.25
66681;BME280;53575;51.366;12.350;2023-03-21T08:12:38;100362.50;;;10.70;81.34
66681;BME280;53575;51.366;12.350;2023-03-21T08:15:04;100356.31;;;10.82;81.30
66681;BME280;53575;51.366;12.350;2023-03-21T08:17:30;100358.84;;;10.96;79.99
66681;BME280;53575;51.366;12.350;2023-03-21T08:19:55;100359.63;;;11.12;78.95
66681;BME280;53575;51.366;12.350;2023-03-21T08:22:21;100363.84;;;11.27;78.91
66681;BME280;53575;51.366;12.350;2023-03-21T08:24:47;100368.13;;;11.38;78.65
66681;BME280;53575;51.366;12.350;2023-03-21T08:27:12;100372.53;;;11.32;78.16
66681;BME280;53575;51.366;12.350;2023-03-21T08:29:38;100370.84;;;11.21;78.42
66681;BME280;53575;51.366;12.350;2023-03-21T08:32:07;100368.28;;;11.18;78.02
66681;BME280;53575;51.366;12.350;2023-03-21T08:34:33;100371.75;;;11.20;78.17
66681;BME280;53575;51.366;12.350;2023-03-21T08:36:59;100373.53;;;11.14;78.23
66681;BME280;53575;51.366;12.350;2023-03-21T08:39:25;100371.81;;;11.10;78.67
66681;BME280;53575;51.366;12.350;2023-03-21T08:41:51;100377.75;;;11.35;77.39
66681;BME280;53575;51.366;12.350;2023-03-21T08:44:16;100375.00;;;11.50;76.40
66681;BME280;53575;51.366;12.350;2023-03-21T08:46:42;100369.72;;;11.56;76.02
66681;BME280;53575;51.366;12.350;2023-03-21T08:49:07;100372.56;;;11.27;76.63
66681;BME280;53575;51.366;12.350;2023-03-21T08:51:33;100370.59;;;11.52;76.17
66681;BME280;53575;51.366;12.350;2023-03-21T08:53:58;100366.25;;;11.51;76.07
66681;BME280;53575;51.366;12.350;2023-03-21T08:56:24;100373.16;;;11.58;76.97
66681;BME280;53575;51.366;12.350;2023-03-21T08:58:50;100360.84;;;11.69;75.95
66681;BME280;53575;51.366;12.350;2023-03-21T09:01:15;100361.63;;;11.84;75.08
66681;BME280;53575;51.366;12.350;2023-03-21T09:03:42;100351.78;;;12.04;73.57
66681;BME280;53575;51.366;12.350;2023-03-21T09:06:09;100364.06;;;11.99;74.20
66681;BME280;53575;51.366;12.350;2023-03-21T09:08:35;100356.16;;;12.04;74.48
66681;BME280;53575;51.366;12.350;2023-03-21T09:11:01;100358.81;;;11.98;74.70
66681;BME280;53575;51.366;12.350;2023-03-21T09:13:26;100355.47;;;11.88;75.44
66681;BME280;53575;51.366;12.350;2023-03-21T09:15:54;100343.03;;;12.05;74.87
66681;BME280;53575;51.366;12.350;2023-03-21T09:18:19;100351.81;;;12.01;74.67
66681;BME280;53575;51.366;12.350;2023-03-21T09:20:47;100355.09;;;12.17;74.40
66681;BME280;53575;51.366;12.350;2023-03-21T09:23:14;100351.59;;;12.19;74.00
66681;BME280;53575;51.366;12.350;2023-03-21T09:25:40;100353.06;;;12.42;74.03
66681;BME280;53575;51.366;12.350;2023-03-21T09:28:06;100352.50;;;12.83;72.86
66681;BME280;53575;51.366;12.350;2023-03-21T09:30:33;100350.56;;;12.93;71.25
66681;BME280;53575;51.366;12.350;2023-03-21T09:33:00;100347.13;;;12.91;70.87
66681;BME280;53575;51.366;12.350;2023-03-21T09:35:26;100339.34;;;12.86;71.18
66681;BME280;53575;51.366;12.350;2023-03-21T09:37:52;100339.97;;;13.02;71.20
66681;BME280;53575;51.366;12.350;2023-03-21T09:42:57;100340.47;;;12.68;72.53
66681;BME280;53575;51.366;12.350;2023-03-21T09:45:51;100346.00;;;13.09;71.45
66681;BME280;53575;51.366;12.350;2023-03-21T09:48:42;100335.06;;;13.35;70.15
66681;BME280;53575;51.366;12.350;2023-03-21T09:51:14;100329.13;;;13.24;70.40
66681;BME280;53575;51.366;12.350;2023-03-21T09:53:43;100327.59;;;13.61;70.51
66681;BME280;53575;51.366;12.350;2023-03-21T09:56:12;100319.84;;;13.54;69.75
66681;BME280;53575;51.366;12.350;2023-03-21T09:58:47;100319.00;;;13.55;69.29
66681;BME280;53575;51.366;12.350;2023-03-21T10:01:24;100316.38;;;13.53;68.98
66681;BME280;53575;51.366;12.350;2023-03-21T10:03:59;100314.50;;;13.60;69.05
66681;BME280;53575;51.366;12.350;2023-03-21T10:06:26;100306.84;;;13.93;68.63
66681;BME280;53575;51.366;12.350;2023-03-21T10:09:07;100305.44;;;13.78;68.69
66681;BME280;53575;51.366;12.350;2023-03-21T10:11:56;100306.63;;;13.60;69.41
66681;BME280;53575;51.366;12.350;2023-03-21T10:14:36;100302.25;;;13.09;70.00
66681;BME280;53575;51.366;12.350;2023-03-21T10:17:21;100304.88;;;13.09;71.81
66681;BME280;53575;51.366;12.350;2023-03-21T10:22:37;100296.47;;;12.87;72.22
66681;BME280;53575;51.366;12.350;2023-03-21T10:25:04;100288.19;;;13.13;72.25
66681;BME280;53575;51.366;12.350;2023-03-21T10:27:30;100293.50;;;13.09;71.94
66681;BME280;53575;51.366;12.350;2023-03-21T10:29:56;100283.16;;;13.01;72.76
66681;BME280;53575;51.366;12.350;2023-03-21T10:32:22;100287.31;;;13.11;72.41
66681;BME280;53575;51.366;12.350;2023-03-21T10:34:54;100287.47;;;13.04;72.38
66681;BME280;53575;51.366;12.350;2023-03-21T10:37:21;100281.19;;;13.14;72.13
66681;BME280;53575;51.366;12.350;2023-03-21T10:39:50;100284.34;;;13.34;70.90
66681;BME280;53575;51.366;12.350;2023-03-21T10:42:25;100284.75;;;13.59;69.77
66681;BME280;53575;51.366;12.350;2023-03-21T10:44:54;100278.38;;;13.73;68.66
66681;BME280;53575;51.366;12.350;2023-03-21T10:47:24;100283.03;;;14.02;67.85
66681;BME280;53575;51.366;12.350;2023-03-21T10:49:50;100277.97;;;13.93;67.26
66681;BME280;53575;51.366;12.350;2023-03-21T10:52:21;100269.75;;;14.09;66.97
66681;BME280;53575;51.366;12.350;2023-03-21T10:54:48;100266.03;;;14.18;66.70
66681;BME280;53575;51.366;12.350;2023-03-21T10:57:20;100267.91;;;14.13;66.74
66681;BME280;53575;51.366;12.350;2023-03-21T10:59:52;100278.84;;;14.33;66.73
66681;BME280;53575;51.366;12.350;2023-03-21T11:02:36;100279.44;;;14.06;66.85
66681;BME280;53575;51.366;12.350;2023-03-21T11:05:20;100271.34;;;13.73;68.15
66681;BME280;53575;51.366;12.350;2023-03-21T11:08:27;100264.94;;;13.88;67.52
66681;BME280;53575;51.366;12.350;2023-03-21T11:13:32;100259.94;;;13.76;68.24
66681;BME280;53575;51.366;12.350;2023-03-21T11:18:30;100261.78;;;13.71;69.18
66681;BME280;53575;51.366;12.350;2023-03-21T11:21:02;100259.97;;;13.73;68.92
66681;BME280;53575;51.366;12.350;2023-03-21T11:23:30;100250.97;;;13.86;68.41
66681;BME280;53575;51.366;12.350;2023-03-21T11:25:58;100255.53;;;14.18;67.91
66681;BME280;53575;51.366;12.350;2023-03-21T11:28:28;100250.72;;;14.38;66.89
66681;BME280;53575;51.366;12.350;2023-03-21T11:30:59;100241.59;;;14.55;66.39
66681;BME280;53575;51.366;12.350;2023-03-21T11:33:30;100246.50;;;14.70;66.49
66681;BME280;53575;51.366;12.350;2023-03-21T11:38:51;100236.84;;;15.05;65.19
66681;BME280;53575;51.366;12.350;2023-03-21T11:41:28;100244.00;;;15.34;63.06
66681;BME280;53575;51.366;12.350;2023-03-21T11:43:56;100233.06;;;15.49;61.70
66681;BME280;53575;51.366;12.350;2023-03-21T11:46:24;100224.38;;;15.44;62.00
66681;BME280;53575;51.366;12.350;2023-03-21T11:48:50;100225.00;;;15.54;61.47
66681;BME280;53575;51.366;12.350;2023-03-21T11:56:33;100216.41;;;16.38;58.71
66681;BME280;53575;51.366;12.350;2023-03-21T12:04:36;100203.16;;;16.39;58.32
66681;BME280;53575;51.366;12.350;2023-03-21T12:09:36;100184.38;;;16.50;58.54
66681;BME280;53575;51.366;12.350;2023-03-21T12:15:02;100186.81;;;16.56;58.00
66681;BME280;53575;51.366;12.350;2023-03-21T12:20:53;100180.19;;;16.69;57.30
66681;BME280;53575;51.366;12.350;2023-03-21T12:26:25;100173.88;;;16.75;57.27
66681;BME280;53575;51.366;12.350;2023-03-21T12:29:17;100177.50;;;16.71;57.29
66681;BME280;53575;51.366;12.350;2023-03-21T12:37:31;100173.09;;;17.48;54.75
66681;BME280;53575;51.366;12.350;2023-03-21T12:43:48;100154.59;;;17.71;54.31
66681;BME280;53575;51.366;12.350;2023-03-21T12:45:52;100154.38;;;17.77;54.85
66681;BME280;53575;51.366;12.350;2023-03-21T12:48:27;100154.75;;;17.67;55.45
66681;BME280;53575;51.366;12.350;2023-03-21T12:50:55;100156.59;;;17.88;54.59
66681;BME280;53575;51.366;12.350;2023-03-21T12:56:12;100149.94;;;18.01;54.49
66681;BME280;53575;51.366;12.350;2023-03-21T13:01:46;100131.72;;;17.47;55.08
66681;BME280;53575;51.366;12.350;2023-03-21T13:07:14;100130.56;;;17.54;55.92
66681;BME280;53575;51.366;12.350;2023-03-21T13:09:42;100126.41;;;17.70;55.47
66681;BME280;53575;51.366;12.350;2023-03-21T13:15:13;100123.16;;;17.87;55.89
66681;BME280;53575;51.366;12.350;2023-03-21T13:17:49;100111.66;;;17.88;54.83
66681;BME280;53575;51.366;12.350;2023-03-21T13:23:07;100106.16;;;17.71;56.01
66681;BME280;53575;51.366;12.350;2023-03-21T13:25:40;100106.03;;;17.97;55.66
66681;BME280;53575;51.366;12.350;2023-03-21T13:28:21;100106.06;;;18.18;54.31
66681;BME280;53575;51.366;12.350;2023-03-21T13:30:47;100096.59;;;18.12;53.86
66681;BME280;53575;51.366;12.350;2023-03-21T13:33:15;100088.75;;;18.31;53.65
66681;BME280;53575;51.366;12.350;2023-03-21T13:36:14;100084.16;;;18.57;53.54
66681;BME280;53575;51.366;12.350;2023-03-21T13:38:38;100086.81;;;18.36;53.74
66681;BME280;53575;51.366;12.350;2023-03-21T13:56:53;100082.38;;;18.15;52.77
66681;BME280;53575;51.366;12.350;2023-03-21T14:04:41;100070.59;;;18.01;54.32
66681;BME280;53575;51.366;12.350;2023-03-21T14:09:47;100063.28;;;17.41;55.57
66681;BME280;53575;51.366;12.350;2023-03-21T14:12:16;100073.97;;;17.38;56.56
66681;BME280;53575;51.366;12.350;2023-03-21T14:14:46;100062.19;;;17.23;56.90
66681;BME280;53575;51.366;12.350;2023-03-21T14:17:26;100065.66;;;17.25;56.69
66681;BME280;53575;51.366;12.350;2023-03-21T14:20:13;100061.50;;;16.94;57.99
66681;BME280;53575;51.366;12.350;2023-03-21T14:22:40;100055.69;;;16.85;58.48
66681;BME280;53575;51.366;12.350;2023-03-21T14:25:11;100050.50;;;16.81;58.78
66681;BME280;53575;51.366;12.350;2023-03-21T14:27:46;100046.72;;;16.89;58.51
66681;BME280;53575;51.366;12.350;2023-03-21T14:30:46;100042.59;;;16.81;59.21
66681;BME280;53575;51.366;12.350;2023-03-21T14:35:40;100043.38;;;16.58;59.72
66681;BME280;53575;51.366;12.350;2023-03-21T14:38:07;100036.38;;;16.57;60.15
66681;BME280;53575;51.366;12.350;2023-03-21T14:40:52;100032.72;;;16.62;60.31
66681;BME280;53575;51.366;12.350;2023-03-21T14:43:20;100036.78;;;16.70;60.06
66681;BME280;53575;51.366;12.350;2023-03-21T14:45:55;100026.47;;;16.89;59.79
66681;BME280;53575;51.366;12.350;2023-03-21T14:48:31;100027.97;;;16.96;59.37